createdAt,value
2018-01-21T00:03:26.248Z,997.34
2018-01-21T00:08:21.463Z,997.30
2018-01-21T00:13:21.090Z,997.37
2018-01-21T00:18:20.697Z,997.46
2018-01-21T00:23:15.227Z,997.73
2018-01-21T00:28:10.879Z,997.72
2018-01-21T00:33:12.565Z,997.87
2018-01-21T00:38:08.150Z,997.91
2018-01-21T00:43:04.558Z,997.96
2018-01-21T00:48:03.813Z,998.06
2018-01-21T00:53:02.475Z,998.13
2018-01-21T00:57:57.226Z,998.25
2018-01-21T01:02:52.851Z,998.28
2018-01-21T01:07:48.024Z,998.38
2018-01-21T01:12:48.418Z,998.57
2018-01-21T01:17:47.190Z,998.71
2018-01-21T01:22:46.322Z,998.77
2018-01-21T01:27:41.190Z,998.88
2018-01-21T01:32:37.612Z,998.84
2018-01-21T01:37:32.728Z,998.91
2018-01-21T01:42:32.701Z,999.03
2018-01-21T01:47:28.539Z,999.16
2018-01-21T01:52:28.142Z,999.18
2018-01-21T01:57:27.288Z,999.34
2018-01-21T02:02:23.441Z,999.48
2018-01-21T02:07:18.889Z,999.59
2018-01-21T02:12:14.656Z,999.67
2018-01-21T02:17:15.182Z,999.85
2018-01-21T02:22:10.856Z,999.84
2018-01-21T02:27:07.348Z,999.97
2018-01-21T02:32:07.015Z,1000.08
2018-01-21T02:37:05.909Z,1000.22
2018-01-21T02:42:04.741Z,1000.18
2018-01-21T02:47:03.422Z,1000.28
2018-01-21T02:52:02.216Z,1000.39
2018-01-21T02:56:57.876Z,1000.47
2018-01-21T03:01:57.505Z,1000.46
2018-01-21T03:06:52.973Z,1000.58
2018-01-21T03:11:49.328Z,1000.65
2018-01-21T03:16:48.425Z,1000.68
2018-01-21T03:21:43.216Z,1000.81
2018-01-21T03:26:40.450Z,1000.82
2018-01-21T03:31:36.665Z,1000.89
2018-01-21T03:36:32.112Z,1000.98
2018-01-21T03:41:28.635Z,1001.07
2018-01-21T03:46:28.199Z,1001.29
2018-01-21T03:51:25.193Z,1001.40
2018-01-21T03:56:21.459Z,1001.51
2018-01-21T04:01:20.929Z,1001.41
2018-01-21T04:06:16.720Z,1001.61
2018-01-21T04:11:12.683Z,1001.58
2018-01-21T04:16:13.758Z,1001.59
2018-01-21T04:21:09.219Z,1001.82
2018-01-21T04:26:08.178Z,1001.89
2018-01-21T04:31:03.768Z,1001.90
2018-01-21T04:36:00.425Z,1002.01
2018-01-21T04:40:59.604Z,1002.17
2018-01-21T04:45:54.350Z,1002.23
2018-01-21T04:50:54.787Z,1002.36
2018-01-21T04:55:54.334Z,1002.32
2018-01-21T05:00:49.838Z,1002.51
2018-01-21T05:05:45.382Z,1002.58
2018-01-21T05:10:46.062Z,1002.69
2018-01-21T05:15:44.781Z,1002.74
2018-01-21T05:20:43.861Z,1002.79
2018-01-21T05:25:42.586Z,1002.74
2018-01-21T05:30:37.379Z,1002.90
2018-01-21T05:35:36.680Z,1003.00
2018-01-21T05:40:35.355Z,1002.90
2018-01-21T05:45:33.746Z,1003.07
2018-01-21T05:50:33.225Z,1003.13
2018-01-21T05:55:32.981Z,1003.22
2018-01-21T06:00:28.468Z,1003.29
2018-01-21T06:05:26.123Z,1003.36
2018-01-21T06:10:22.057Z,1003.36
2018-01-21T06:15:18.334Z,1003.50
2018-01-21T06:20:13.864Z,1003.57
2018-01-21T06:25:13.706Z,1003.60
2018-01-21T06:30:12.354Z,1003.77
2018-01-21T06:35:07.153Z,1003.88
2018-01-21T06:40:02.507Z,1004.01
2018-01-21T06:45:02.502Z,1004.11
2018-01-21T06:49:57.737Z,1004.20
2018-01-21T06:54:54.367Z,1004.38
2018-01-21T06:59:51.740Z,1004.37
2018-01-21T07:04:51.170Z,1004.43
2018-01-21T07:09:50.634Z,1004.68
2018-01-21T07:14:45.547Z,1004.72
2018-01-21T07:19:42.102Z,1004.82
2018-01-21T07:24:42.534Z,1004.90
2018-01-21T07:29:41.341Z,1005.05
2018-01-21T07:34:37.270Z,1005.17
2018-01-21T07:39:36.827Z,1005.19
2018-01-21T07:44:32.563Z,1005.34
2018-01-21T07:49:29.140Z,1005.50
2018-01-21T07:54:24.642Z,1005.63
2018-01-21T07:59:21.751Z,1005.71
2018-01-21T08:04:17.123Z,1005.83
2018-01-21T08:09:14.073Z,1006.00
2018-01-21T08:14:14.607Z,1006.05
2018-01-21T08:19:09.823Z,1006.12
2018-01-21T08:24:10.520Z,1006.26
2018-01-21T08:29:05.201Z,1006.35
2018-01-21T08:34:05.781Z,1006.41
2018-01-21T08:39:00.668Z,1006.47
2018-01-21T08:43:57.621Z,1006.55
2018-01-21T08:48:54.135Z,1006.51
2018-01-21T08:53:49.625Z,1006.56
2018-01-21T08:58:45.204Z,1006.63
2018-01-21T09:03:40.993Z,1006.76
2018-01-21T09:08:42.673Z,1006.91
2018-01-21T09:13:41.051Z,1006.90
2018-01-21T09:18:37.007Z,1006.95
2018-01-21T09:23:34.276Z,1007.04
2018-01-21T09:28:30.705Z,1007.11
2018-01-21T09:33:26.868Z,1007.30
2018-01-21T09:38:23.555Z,1007.25
2018-01-21T09:43:19.462Z,1007.37
2018-01-21T09:48:15.455Z,1007.25
2018-01-21T09:53:12.288Z,1007.39
2018-01-21T09:58:12.028Z,1007.48
2018-01-21T10:03:06.639Z,1007.57
2018-01-21T10:08:02.389Z,1007.61
2018-01-21T10:12:58.389Z,1007.85
2018-01-21T10:17:55.765Z,1007.92
2018-01-21T10:22:52.257Z,1007.87
2018-01-21T10:27:53.765Z,1007.92
2018-01-21T10:32:52.264Z,1007.89
2018-01-21T10:37:47.228Z,1008.03
2018-01-21T10:42:44.109Z,1008.02
2018-01-21T10:47:39.872Z,1008.14
2018-01-21T10:52:39.844Z,1008.13
2018-01-21T10:57:35.057Z,1008.29
2018-01-21T11:02:30.717Z,1008.33
2018-01-21T11:07:30.926Z,1008.33
2018-01-21T11:12:26.194Z,1008.32
2018-01-21T11:17:21.884Z,1008.32
2018-01-21T11:22:17.435Z,1008.38
2018-01-21T11:27:14.172Z,1008.37
2018-01-21T11:32:10.149Z,1008.46
2018-01-21T11:37:10.595Z,1008.49
2018-01-21T11:42:06.795Z,1008.37
2018-01-21T11:47:10.739Z,1008.32
2018-01-21T11:52:09.606Z,1008.29
2018-01-21T11:57:09.349Z,1008.39
2018-01-21T12:02:10.301Z,1008.42
2018-01-21T12:07:09.770Z,1008.44
2018-01-21T12:12:08.246Z,1008.49
2018-01-21T12:17:07.725Z,1008.54
2018-01-21T12:22:02.538Z,1008.50
2018-01-21T12:27:02.168Z,1008.53
2018-01-21T12:32:01.985Z,1008.54
2018-01-21T12:37:02.966Z,1008.64
2018-01-21T12:41:57.540Z,1008.83
2018-01-21T12:46:53.183Z,1008.90
2018-01-21T12:51:49.749Z,1008.88
2018-01-21T12:56:49.036Z,1008.94
2018-01-21T13:01:48.744Z,1008.99
2018-01-21T13:06:48.480Z,1008.95
2018-01-21T13:11:44.360Z,1009.05
2018-01-21T13:16:43.733Z,1009.08
2018-01-21T13:21:38.714Z,1009.09
2018-01-21T13:26:34.373Z,1009.06
2018-01-21T13:31:31.045Z,1009.10
2018-01-21T13:36:31.275Z,1009.15
2018-01-21T13:41:29.532Z,1009.21
2018-01-21T13:46:25.440Z,1009.17
2018-01-21T13:51:21.703Z,1009.21
2018-01-21T13:56:17.410Z,1009.38
2018-01-21T14:01:17.987Z,1009.38
2018-01-21T14:06:16.721Z,1009.44
2018-01-21T14:11:15.404Z,1009.42
2018-01-21T14:16:15.091Z,1009.30
2018-01-21T14:21:10.352Z,1009.58
2018-01-21T14:26:10.508Z,1009.63
2018-01-21T14:31:09.270Z,1009.62
2018-01-21T14:36:07.845Z,1009.68
2018-01-21T14:41:02.622Z,1009.77
2018-01-21T14:45:59.363Z,1009.64
2018-01-21T14:50:58.638Z,1009.76
2018-01-21T14:55:54.273Z,1009.86
2018-01-21T15:00:50.665Z,1009.81
2018-01-21T15:05:47.024Z,1009.88
2018-01-21T15:10:47.171Z,1009.91
2018-01-21T15:15:42.115Z,1009.86
2018-01-21T15:20:38.936Z,1009.79
2018-01-21T15:25:39.205Z,1009.67
2018-01-21T15:30:38.533Z,1009.62
2018-01-21T15:35:33.025Z,1009.59
2018-01-21T15:40:29.082Z,1009.54
2018-01-21T15:45:28.345Z,1009.54
2018-01-21T15:50:24.305Z,1009.45
2018-01-21T15:55:19.576Z,1009.41
2018-01-21T16:00:16.140Z,1009.38
2018-01-21T16:05:12.307Z,1009.30
2018-01-21T16:10:07.749Z,1009.37
2018-01-21T16:15:03.561Z,1009.38
2018-01-21T16:20:02.910Z,1009.55
2018-01-21T16:24:58.730Z,1009.31
2018-01-21T16:29:55.243Z,1009.24
2018-01-21T16:34:50.670Z,1009.18
2018-01-21T16:39:48.378Z,1009.04
2018-01-21T16:44:47.499Z,1009.06
2018-01-21T16:49:47.164Z,1009.24
2018-01-21T16:54:47.287Z,1009.10
2018-01-21T16:59:46.409Z,1009.20
2018-01-21T17:04:44.882Z,1009.23
2018-01-21T17:09:44.333Z,1009.17
2018-01-21T17:14:39.779Z,1009.24
2018-01-21T17:19:35.397Z,1009.21
2018-01-21T17:24:35.870Z,1009.33
2018-01-21T17:29:35.634Z,1009.14
2018-01-21T17:34:34.377Z,1009.11
2018-01-21T17:39:30.144Z,1009.21
2018-01-21T17:44:31.424Z,1009.23
2018-01-21T17:49:29.718Z,1009.14
2018-01-21T17:54:30.531Z,1009.15
2018-01-21T17:59:29.836Z,1009.24
2018-01-21T18:04:29.328Z,1009.21
2018-01-21T18:09:29.535Z,1009.28
2018-01-21T18:14:28.054Z,1009.26
2018-01-21T18:19:27.767Z,1009.17
2018-01-21T18:24:22.200Z,1009.03
2018-01-21T18:29:17.890Z,1009.00
2018-01-21T18:34:17.363Z,1008.92
2018-01-21T18:39:12.425Z,1008.84
2018-01-21T18:44:11.960Z,1008.78
2018-01-21T18:49:07.482Z,1008.70
2018-01-21T18:54:02.932Z,1008.50
2018-01-21T18:58:58.484Z,1008.55
2018-01-21T19:03:55.984Z,1008.56
2018-01-21T19:08:52.407Z,1008.65
2018-01-21T19:13:53.536Z,1008.60
2018-01-21T19:18:51.907Z,1008.65
2018-01-21T19:23:50.600Z,1008.69
2018-01-21T19:28:49.906Z,1008.46
2018-01-21T19:33:48.597Z,1008.34
2018-01-21T19:38:47.355Z,1008.20
2018-01-21T19:48:43.440Z,1008.15
2018-01-21T19:53:43.234Z,1008.12
2018-01-21T19:58:41.900Z,1007.85
2018-01-21T20:03:40.908Z,1007.77
2018-01-21T20:08:41.600Z,1007.82
2018-01-21T20:13:39.958Z,1007.85
2018-01-21T20:18:38.620Z,1008.01
2018-01-21T20:23:39.316Z,1008.07
2018-01-21T20:28:34.803Z,1007.82
2018-01-21T20:33:35.328Z,1007.65
2018-01-21T20:38:30.017Z,1007.62
2018-01-21T20:43:27.584Z,1007.54
2018-01-21T20:48:27.750Z,1007.49
2018-01-21T20:53:23.636Z,1007.65
2018-01-21T20:58:22.759Z,1007.66
2018-01-21T21:03:17.892Z,1007.36
2018-01-21T21:08:17.561Z,1007.34
2018-01-21T21:13:16.100Z,1007.30
2018-01-21T21:18:10.591Z,1007.12
2018-01-21T21:23:10.140Z,1007.09
2018-01-21T21:28:04.764Z,1006.88
2018-01-21T21:33:00.386Z,1007.10
2018-01-21T21:38:00.321Z,1007.19
2018-01-21T21:43:00.040Z,1006.98
2018-01-21T21:48:00.671Z,1007.01
2018-01-21T21:52:59.750Z,1006.80
2018-01-21T21:57:55.113Z,1006.59
2018-01-21T22:02:54.537Z,1006.37
2018-01-21T22:07:49.194Z,1006.48
2018-01-21T22:12:48.865Z,1006.18
2018-01-21T22:17:48.093Z,1006.19
2018-01-21T22:22:43.016Z,1006.12
2018-01-21T22:27:42.285Z,1006.13
2018-01-21T22:32:38.402Z,1006.22
2018-01-21T22:37:35.013Z,1005.97
2018-01-21T22:42:35.067Z,1005.84
2018-01-21T22:47:34.659Z,1005.69
2018-01-21T22:52:33.180Z,1005.60
2018-01-21T22:57:32.835Z,1005.58
2018-01-21T23:02:27.279Z,1005.48
2018-01-21T23:07:23.050Z,1005.26
2018-01-21T23:12:22.627Z,1005.22
2018-01-21T23:17:21.295Z,1005.20
2018-01-21T23:22:16.246Z,1005.19
2018-01-21T23:27:16.955Z,1005.27
2018-01-21T23:32:12.617Z,1005.18
2018-01-21T23:37:11.957Z,1004.77
2018-01-21T23:42:10.832Z,1004.78
2018-01-21T23:47:05.884Z,1004.60
2018-01-21T23:52:05.228Z,1004.49
2018-01-21T23:57:00.023Z,1004.61
